Terminal Aerodrome Forecast
Issued by NWS Louisville, KY

Home | Current Version | Previous Version | Text Only | Print | Product List | Glossary On
Versions: 1 2 3 4 5 6 7 8 9 10 11 12 13 14 15 16 17 18 19 20
000
FTUS43 KLMK 022329
TAFBWG
TAF
KBWG 022329Z 0300/0324 VRB04KT P6SM SCT025 BKN100
      TEMPO 0300/0304 BKN025
     FM030400 VRB03KT 6SM BR BKN012
      TEMPO 0309/0313 2SM BR BKN005
     FM031500 31007KT P6SM BKN025=

USA.gov is the U.S. government's official web portal to all federal, state and local government web resources and services.